Time;durP1;ratioP1;P1;durP2;ratioP2;P2;SDS_P1;SDS_P2;PMS_P1;PMS_P2;Temp;Humidity;BMP_temperature;BMP_pressure;BME280_temperature;BME280_humidity;BME280_pressure;Samples;Min_cycle;Max_cycle;Signal;HPM_P1;HPM_P2
2021/03/11 00:01:29;;;;;;;26.80;22.70;;;7.00;99.90;;;;;;6188993;23;20473;-80
2021/03/11 00:03:56;;;;;;;26.20;22.50;;;7.00;99.90;;;;;;6149907;23;20440;-80
2021/03/11 00:06:24;;;;;;;23.40;20.90;;;7.00;99.90;;;;;;6173360;23;20414;-80
2021/03/11 00:08:53;;;;;;;25.10;21.23;;;6.90;99.90;;;;;;6137608;23;20447;-81
2021/03/11 00:11:22;;;;;;;25.83;22.93;;;6.90;99.90;;;;;;6137948;23;20416;-81
2021/03/11 00:13:49;;;;;;;27.52;21.50;;;6.90;99.90;;;;;;6136077;23;20895;-80
2021/03/11 00:16:18;;;;;;;24.00;18.60;;;7.00;99.90;;;;;;6138285;23;20187;-80
2021/03/11 00:18:47;;;;;;;23.20;19.13;;;7.00;99.90;;;;;;6137314;23;20454;-80
2021/03/11 00:21:14;;;;;;;25.52;21.02;;;6.90;99.90;;;;;;6136799;23;20935;-80
2021/03/11 00:23:41;;;;;;;22.40;19.00;;;6.90;99.90;;;;;;6173463;23;20210;-80
2021/03/11 00:26:10;;;;;;;23.33;20.70;;;6.90;99.90;;;;;;6137333;23;20477;-80
2021/03/11 00:28:37;;;;;;;23.67;19.37;;;6.90;99.90;;;;;;6138019;23;20462;-80
2021/03/11 00:31:05;;;;;;;25.17;21.80;;;6.80;99.90;;;;;;6173527;23;20402;-80
2021/03/11 00:33:32;;;;;;;25.00;20.70;;;6.80;99.90;;;;;;6137923;23;20419;-80
2021/03/11 00:35:59;;;;;;;27.40;22.87;;;6.80;99.90;;;;;;6137908;23;20418;-80
2021/03/11 00:38:26;;;;;;;28.80;22.30;;;6.80;99.90;;;;;;6174475;23;20458;-80
2021/03/11 00:40:54;;;;;;;25.30;22.43;;;6.70;99.90;;;;;;6137910;23;20459;-81
2021/03/11 00:43:22;;;;;;;24.80;22.10;;;6.70;99.90;;;;;;6137370;23;20420;-82
2021/03/11 00:45:49;;;;;;;24.23;20.77;;;6.70;99.90;;;;;;6174100;23;20477;-81
2021/03/11 00:48:17;;;;;;;26.93;21.67;;;6.70;99.90;;;;;;6137937;23;20498;-81
2021/03/11 00:50:44;;;;;;;27.10;23.40;;;6.70;99.90;;;;;;6163316;23;20415;-81
2021/03/11 00:53:12;;;;;;;28.30;22.77;;;6.70;99.90;;;;;;6175591;23;20403;-81
2021/03/11 00:55:40;;;;;;;25.57;22.47;;;6.60;99.90;;;;;;6138685;23;20812;-81
2021/03/11 00:58:08;;;;;;;28.50;23.13;;;6.70;99.90;;;;;;6139118;23;20520;-81
2021/03/11 01:00:38;;;;;;;28.17;23.50;;;6.70;99.90;;;;;;6139457;23;20486;-81
2021/03/11 01:03:18;;;;;;;28.87;22.60;;;6.60;99.90;;;;;;6140101;23;20793;-81
2021/03/11 01:05:53;;;;;;;27.20;22.97;;;6.60;99.90;;;;;;6138673;23;20451;-80
2021/03/11 01:08:31;;;;;;;27.10;22.83;;;6.60;99.90;;;;;;6136602;23;20831;-80
2021/03/11 01:10:59;;;;;;;29.37;23.20;;;6.60;99.90;;;;;;6173302;23;20401;-81
2021/03/11 01:13:26;;;;;;;26.67;21.90;;;6.60;99.90;;;;;;6137123;23;20422;-81
2021/03/11 01:15:55;;;;;;;31.23;24.30;;;6.60;99.90;;;;;;6161862;23;20513;-81
2021/03/11 01:18:24;;;;;;;26.50;22.67;;;6.50;99.90;;;;;;6137000;23;20436;-80
2021/03/11 01:20:51;;;;;;;28.40;23.77;;;6.60;99.90;;;;;;6136928;23;20912;-80
2021/03/11 01:23:18;;;;;;;30.50;25.00;;;6.60;99.90;;;;;;6173564;23;20393;-80
2021/03/11 01:25:46;;;;;;;30.63;25.30;;;6.60;99.90;;;;;;6137788;23;20414;-81
2021/03/11 01:28:13;;;;;;;31.20;24.30;;;6.60;99.90;;;;;;6138186;23;20815;-81
2021/03/11 01:30:40;;;;;;;32.37;24.60;;;6.60;99.90;;;;;;6137718;23;20748;-81
2021/03/11 01:33:08;;;;;;;31.40;25.70;;;6.60;99.90;;;;;;6173172;23;20398;-81
2021/03/11 01:35:36;;;;;;;30.00;24.97;;;6.60;99.90;;;;;;6136638;23;20409;-81
2021/03/11 01:38:05;;;;;;;34.40;27.13;;;6.60;99.90;;;;;;6137152;23;20436;-81
2021/03/11 01:40:33;;;;;;;32.00;25.87;;;6.60;99.90;;;;;;6137027;23;20414;-81
2021/03/11 01:43:00;;;;;;;33.40;26.00;;;6.60;99.90;;;;;;6137197;23;20473;-81
2021/03/11 01:45:30;;;;;;;32.17;25.07;;;6.50;99.90;;;;;;6136535;23;20478;-81
2021/03/11 01:47:57;;;;;;;31.23;25.33;;;6.60;99.90;;;;;;6136991;23;20439;-81
2021/03/11 01:50:26;;;;;;;29.57;26.17;;;6.50;99.90;;;;;;6136586;23;20881;-81
2021/03/11 01:52:53;;;;;;;33.87;26.83;;;6.60;99.90;;;;;;6136640;23;20453;-81
2021/03/11 01:55:20;;;;;;;29.67;26.47;;;6.50;99.90;;;;;;6138211;23;20426;-81
2021/03/11 01:57:49;;;;;;;31.50;27.23;;;6.50;99.90;;;;;;6173180;23;20760;-81
2021/03/11 02:00:17;;;;;;;31.77;27.90;;;6.60;99.90;;;;;;6136817;23;20427;-81
2021/03/11 02:02:46;;;;;;;27.63;24.00;;;6.60;99.90;;;;;;6173427;23;20408;-81
2021/03/11 02:05:16;;;;;;;32.60;26.40;;;6.60;99.90;;;;;;6137168;23;20437;-81
2021/03/11 02:07:45;;;;;;;30.73;25.80;;;6.60;99.90;;;;;;6172711;23;20463;-80
2021/03/11 02:10:16;;;;;;;33.77;26.20;;;6.60;99.90;;;;;;6173046;23;20423;-81
2021/03/11 02:12:51;;;;;;;33.27;25.73;;;6.60;99.90;;;;;;6173235;23;20391;-81
2021/03/11 02:15:23;;;;;;;29.93;25.67;;;6.50;99.90;;;;;;6137612;23;20421;-81
2021/03/11 02:17:57;;;;;;;32.45;26.45;;;6.60;99.90;;;;;;6160584;23;20435;-81
2021/03/11 02:21:01;;;;;;;29.30;23.60;;;6.70;99.90;;;;;;6136915;23;20530;-81
2021/03/11 02:24:06;;;;;;;27.40;23.60;;;6.70;99.90;;;;;;6072129;23;20409;-81
2021/03/11 02:27:00;;;;;;;30.50;25.13;;;6.70;99.90;;;;;;6069056;23;20452;-81
2021/03/11 02:29:32;;;;;;;30.20;23.63;;;6.80;99.90;;;;;;6126231;23;20200;-81
2021/03/11 02:32:02;;;;;;;31.80;23.20;;;6.80;99.90;;;;;;6136602;23;20466;-82
2021/03/11 02:34:34;;;;;;;29.47;25.07;;;6.70;99.90;;;;;;6135754;23;20412;-82
2021/03/11 02:37:07;;;;;;;31.70;24.43;;;6.70;99.90;;;;;;6135612;23;20418;-82
2021/03/11 02:39:35;;;;;;;28.10;23.00;;;6.70;99.90;;;;;;6171462;23;20381;-82
2021/03/11 02:42:04;;;;;;;32.23;27.20;;;6.70;99.90;;;;;;6135252;23;20412;-82
2021/03/11 02:44:32;;;;;;;30.33;24.20;;;6.80;99.90;;;;;;6175352;23;20457;-81
2021/03/11 02:47:00;;;;;;;29.50;24.30;;;6.70;99.90;;;;;;6135940;23;20426;-82
2021/03/11 02:49:28;;;;;;;29.50;24.53;;;6.80;99.90;;;;;;6137368;23;20524;-82
2021/03/11 02:51:56;;;;;;;28.97;23.90;;;6.70;99.90;;;;;;6136320;23;20408;-82
2021/03/11 02:54:24;;;;;;;30.47;23.77;;;6.80;99.90;;;;;;6171870;23;20415;-82
2021/03/11 02:57:02;;;;;;;26.87;23.63;;;6.70;99.90;;;;;;6136045;23;20445;-82
2021/03/11 02:59:31;;;;;;;29.23;24.20;;;6.70;99.90;;;;;;6135728;23;20443;-82
2021/03/11 03:02:00;;;;;;;31.17;24.53;;;6.80;99.90;;;;;;6136635;23;20897;-82
2021/03/11 03:04:29;;;;;;;30.00;24.53;;;6.70;99.90;;;;;;6136143;23;20442;-82
2021/03/11 03:06:58;;;;;;;31.63;25.77;;;6.80;99.90;;;;;;6171780;23;20404;-82
2021/03/11 03:09:46;;;;;;;29.50;24.93;;;6.70;99.90;;;;;;6136549;23;20406;-82
2021/03/11 03:12:16;;;;;;;27.93;23.37;;;6.70;99.90;;;;;;6137921;23;20429;-82
2021/03/11 03:14:44;;;;;;;30.47;23.20;;;6.70;99.90;;;;;;6163753;23;20427;-82
2021/03/11 03:17:14;;;;;;;32.27;23.73;;;6.70;99.90;;;;;;6139842;23;20418;-82
2021/03/11 03:19:43;;;;;;;29.60;22.90;;;6.80;99.90;;;;;;6139906;23;20411;-82
2021/03/11 03:22:12;;;;;;;28.47;22.87;;;6.80;99.90;;;;;;6140061;23;20750;-82
2021/03/11 03:24:40;;;;;;;30.27;25.60;;;6.80;99.90;;;;;;6139075;23;20438;-82
2021/03/11 03:27:08;;;;;;;30.30;25.67;;;6.80;99.90;;;;;;6138964;23;20458;-82
2021/03/11 03:29:36;;;;;;;26.90;22.10;;;6.80;99.90;;;;;;6175329;23;20449;-82
2021/03/11 03:32:04;;;;;;;29.00;25.07;;;6.80;99.90;;;;;;6139339;23;20420;-82
2021/03/11 03:34:32;;;;;;;29.60;23.23;;;6.80;99.90;;;;;;6176652;23;20393;-82
2021/03/11 03:37:00;;;;;;;30.87;24.50;;;6.80;99.90;;;;;;6141090;23;20425;-82
2021/03/11 03:39:28;;;;;;;28.10;23.30;;;6.80;99.90;;;;;;6139365;23;20438;-82
2021/03/11 03:41:56;;;;;;;31.33;25.63;;;6.80;99.90;;;;;;6144113;23;20459;-82
2021/03/11 03:44:30;;;;;;;28.97;23.80;;;6.80;99.90;;;;;;6137468;23;20433;-82
2021/03/11 03:46:59;;;;;;;29.40;24.00;;;6.80;99.90;;;;;;6137980;23;20416;-82
2021/03/11 03:49:28;;;;;;;32.27;24.60;;;6.80;99.90;;;;;;6138087;23;20438;-82
2021/03/11 03:51:59;;;;;;;29.20;23.47;;;6.80;99.90;;;;;;6138199;23;20427;-82
2021/03/11 03:54:29;;;;;;;31.10;22.57;;;6.80;99.90;;;;;;6137787;23;20423;-82
2021/03/11 03:57:01;;;;;;;28.73;22.37;;;6.80;99.90;;;;;;6137730;23;20738;-82
2021/03/11 03:59:34;;;;;;;27.73;22.80;;;6.80;99.90;;;;;;6137998;23;20445;-82
2021/03/11 04:02:04;;;;;;;26.57;21.23;;;6.90;99.90;;;;;;6139258;23;20416;-82
2021/03/11 04:04:35;;;;;;;25.77;22.03;;;6.80;99.90;;;;;;6162964;23;20441;-82
2021/03/11 04:07:05;;;;;;;26.37;21.13;;;6.90;99.90;;;;;;6137603;23;20414;-82
2021/03/11 04:09:32;;;;;;;23.90;20.83;;;6.90;99.90;;;;;;6137297;23;20444;-82
2021/03/11 04:12:00;;;;;;;25.37;20.63;;;6.90;99.90;;;;;;6136092;23;20469;-82
2021/03/11 04:14:29;;;;;;;24.53;20.50;;;6.90;99.90;;;;;;6135415;23;20466;-82
2021/03/11 04:16:57;;;;;;;23.37;19.70;;;6.80;99.90;;;;;;6134390;23;20954;-82
2021/03/11 04:19:25;;;;;;;27.53;21.03;;;6.90;99.90;;;;;;6136554;23;20477;-82
2021/03/11 04:21:53;;;;;;;24.70;20.70;;;6.90;99.90;;;;;;6137606;23;20422;-82
2021/03/11 04:24:22;;;;;;;26.40;21.60;;;6.90;99.90;;;;;;6137135;23;20409;-82
2021/03/11 04:26:51;;;;;;;22.03;19.20;;;7.00;99.90;;;;;;6138279;23;20166;-82
2021/03/11 04:29:18;;;;;;;22.53;19.07;;;7.00;99.90;;;;;;6138515;23;20441;-83
2021/03/11 04:31:46;;;;;;;25.60;19.37;;;7.00;99.90;;;;;;6138490;23;20415;-82
2021/03/11 04:34:13;;;;;;;25.92;20.02;;;7.00;99.90;;;;;;6136654;23;20844;-82
2021/03/11 04:36:41;;;;;;;21.47;16.60;;;7.10;99.90;;;;;;6138541;23;20180;-82
2021/03/11 04:39:09;;;;;;;24.30;17.47;;;7.10;99.90;;;;;;6138089;23;20438;-82
2021/03/11 04:41:37;;;;;;;25.03;18.90;;;7.10;99.90;;;;;;6138222;23;20892;-82
2021/03/11 04:44:05;;;;;;;25.03;18.50;;;7.10;99.90;;;;;;6138308;23;20449;-82
2021/03/11 04:46:33;;;;;;;21.80;17.47;;;7.10;99.90;;;;;;6137645;23;20423;-82
2021/03/11 04:49:03;;;;;;;23.17;18.90;;;7.10;99.90;;;;;;6174481;23;20434;-82
2021/03/11 04:51:32;;;;;;;22.57;18.90;;;7.10;99.90;;;;;;6138601;23;20418;-82
2021/03/11 04:54:01;;;;;;;22.37;17.70;;;7.10;99.90;;;;;;6137485;23;20479;-82
2021/03/11 04:56:37;;;;;;;21.03;17.50;;;7.10;99.90;;;;;;6137840;23;20439;-83
2021/03/11 04:59:05;;;;;;;22.03;18.40;;;7.10;99.90;;;;;;6138619;23;20447;-82
2021/03/11 05:01:42;;;;;;;20.10;18.00;;;7.10;99.90;;;;;;6139169;23;20415;-83
2021/03/11 05:04:11;;;;;;;22.83;18.10;;;7.10;99.90;;;;;;6138974;23;20522;-83
2021/03/11 05:06:38;;;;;;;21.90;18.40;;;7.10;99.90;;;;;;6139136;23;20438;-82
2021/03/11 05:09:06;;;;;;;22.83;17.20;;;7.10;99.90;;;;;;6138037;23;20488;-82
2021/03/11 05:11:33;;;;;;;20.77;16.70;;;7.10;99.90;;;;;;6163471;23;20891;-82
2021/03/11 05:14:01;;;;;;;20.17;17.97;;;7.10;99.90;;;;;;6138377;23;20917;-82
2021/03/11 05:16:28;;;;;;;18.40;16.30;;;7.10;99.90;;;;;;6138643;23;20419;-83
2021/03/11 05:18:56;;;;;;;22.30;18.20;;;7.10;99.90;;;;;;6138994;23;20443;-83
2021/03/11 05:21:23;;;;;;;20.80;16.80;;;7.20;99.90;;;;;;6138753;23;20413;-83
2021/03/11 05:23:58;;;;;;;22.83;18.07;;;7.20;99.90;;;;;;6163321;23;20419;-83
2021/03/11 05:26:27;;;;;;;22.97;16.50;;;7.20;99.90;;;;;;6139371;23;20475;-82
2021/03/11 05:28:54;;;;;;;20.50;17.20;;;7.20;99.90;;;;;;6139050;23;20437;-82
2021/03/11 05:31:22;;;;;;;20.50;16.87;;;7.20;99.90;;;;;;6163869;23;20419;-82
2021/03/11 05:33:50;;;;;;;20.80;17.80;;;7.20;99.90;;;;;;6165934;23;20415;-82
2021/03/11 05:36:17;;;;;;;20.37;16.70;;;7.20;99.90;;;;;;6172723;23;20423;-82
2021/03/11 05:38:45;;;;;;;19.80;16.93;;;7.20;99.90;;;;;;6148236;23;20447;-82
2021/03/11 05:41:14;;;;;;;21.10;18.40;;;7.20;99.90;;;;;;6149501;23;20443;-82
2021/03/11 05:43:42;;;;;;;18.90;16.87;;;7.20;99.90;;;;;;6185920;23;20411;-83
2021/03/11 05:46:11;;;;;;;21.33;18.20;;;7.20;99.90;;;;;;6184692;23;20455;-83
2021/03/11 05:48:40;;;;;;;19.80;17.70;;;7.20;99.90;;;;;;6147635;23;20436;-83
2021/03/11 05:51:09;;;;;;;20.63;18.23;;;7.20;99.90;;;;;;6145164;23;20413;-83
2021/03/11 05:53:38;;;;;;;20.10;16.80;;;7.20;99.90;;;;;;6137636;23;20419;-83
2021/03/11 05:56:06;;;;;;;19.40;17.40;;;7.30;99.90;;;;;;6136872;23;20424;-83
2021/03/11 05:58:34;;;;;;;20.93;17.73;;;7.20;99.90;;;;;;6140278;23;20440;-83
2021/03/11 06:01:02;;;;;;;20.20;18.00;;;7.30;99.90;;;;;;6171007;23;20430;-83
2021/03/11 06:03:32;;;;;;;20.13;17.50;;;7.30;99.90;;;;;;6153942;23;20419;-83
2021/03/11 06:06:02;;;;;;;19.47;17.57;;;7.30;99.90;;;;;;6153544;23;20449;-82
2021/03/11 06:08:29;;;;;;;18.67;16.60;;;7.30;99.90;;;;;;6141183;23;20432;-82
2021/03/11 06:10:59;;;;;;;18.83;16.83;;;7.30;99.90;;;;;;6175040;23;20439;-82
2021/03/11 06:13:27;;;;;;;21.20;18.17;;;7.30;99.90;;;;;;6137154;23;20419;-82
2021/03/11 06:15:59;;;;;;;21.53;17.27;;;7.40;99.90;;;;;;6138013;23;20429;-82
2021/03/11 06:18:31;;;;;;;22.47;17.50;;;7.40;99.90;;;;;;6137403;23;20436;-82
2021/03/11 06:21:01;;;;;;;20.20;16.63;;;7.40;99.90;;;;;;6138369;23;20436;-82
2021/03/11 06:23:29;;;;;;;18.37;16.47;;;7.40;99.90;;;;;;6162526;23;20483;-82
2021/03/11 06:25:58;;;;;;;17.10;15.40;;;7.40;99.90;;;;;;6137083;23;20436;-82
2021/03/11 06:28:53;;;;;;;19.45;17.45;;;7.40;99.90;;;;;;6161889;23;20463;-82
2021/03/11 06:31:23;;;;;;;19.43;16.77;;;7.50;99.90;;;;;;6136912;23;20176;-82
2021/03/11 06:33:52;;;;;;;17.90;16.00;;;7.50;99.90;;;;;;6136516;23;20416;-82
2021/03/11 06:36:21;;;;;;;17.70;15.77;;;7.50;99.90;;;;;;6136398;23;20455;-82
2021/03/11 06:38:49;;;;;;;19.98;16.08;;;7.50;99.90;;;;;;6135480;23;20427;-82
2021/03/11 06:41:17;;;;;;;16.50;14.07;;;7.60;99.90;;;;;;6136814;23;20227;-81
2021/03/11 06:43:53;;;;;;;17.67;15.23;;;7.60;99.90;;;;;;6137095;23;20437;-82
2021/03/11 06:46:21;;;;;;;17.30;15.43;;;7.60;99.90;;;;;;6137004;23;20474;-82
2021/03/11 06:48:49;;;;;;;17.03;15.20;;;7.70;99.90;;;;;;6172661;23;20444;-81
2021/03/11 06:51:18;;;;;;;18.60;16.17;;;7.60;99.90;;;;;;6136458;23;20822;-81
2021/03/11 06:53:57;;;;;;;18.57;16.17;;;7.60;99.90;;;;;;6136831;23;20423;-82
2021/03/11 06:56:26;;;;;;;16.70;15.00;;;7.60;99.90;;;;;;6173447;23;20377;-82
2021/03/11 06:58:58;;;;;;;18.50;16.50;;;7.60;99.90;;;;;;6136168;23;20465;-81
2021/03/11 07:01:27;;;;;;;16.90;15.10;;;7.70;99.90;;;;;;6136163;23;20487;-81
2021/03/11 07:03:55;;;;;;;18.23;16.03;;;7.70;99.90;;;;;;6136715;23;20416;-81
2021/03/11 07:06:27;;;;;;;17.87;15.93;;;7.70;99.90;;;;;;6136461;23;20496;-81
2021/03/11 07:08:56;;;;;;;17.50;15.60;;;7.70;99.90;;;;;;6136319;23;20436;-81
2021/03/11 07:11:24;;;;;;;19.37;15.83;;;7.70;99.90;;;;;;6135770;23;20424;-81
2021/03/11 07:13:52;;;;;;;17.90;16.07;;;7.70;99.90;;;;;;6135973;23;20986;-82
2021/03/11 07:16:20;;;;;;;19.10;17.10;;;7.80;99.90;;;;;;6172692;23;20407;-81
2021/03/11 07:18:49;;;;;;;18.90;16.67;;;7.80;99.90;;;;;;6136591;23;20767;-81
2021/03/11 07:21:41;;;;;;;17.73;15.60;;;7.80;99.90;;;;;;6161694;23;20475;-81
2021/03/11 07:24:11;;;;;;;20.40;18.20;;;7.90;99.90;;;;;;6137257;23;20419;-82
2021/03/11 07:26:38;;;;;;;19.80;17.73;;;7.90;99.90;;;;;;6173501;23;20406;-81
2021/03/11 07:29:16;;;;;;;18.90;16.67;;;7.90;99.90;;;;;;6136653;23;20436;-82
2021/03/11 07:31:45;;;;;;;18.63;16.60;;;8.00;99.90;;;;;;6136271;23;20411;-81
2021/03/11 07:34:12;;;;;;;20.80;17.50;;;8.00;99.90;;;;;;6136998;23;20470;-81
2021/03/11 07:36:42;;;;;;;19.47;17.37;;;8.00;99.90;;;;;;6172548;23;20396;-81
2021/03/11 07:39:12;;;;;;;19.60;17.20;;;8.00;99.90;;;;;;6135964;23;20454;-81
2021/03/11 07:41:39;;;;;;;20.80;16.73;;;8.10;99.90;;;;;;6172125;23;20418;-81
2021/03/11 07:44:07;;;;;;;19.50;16.53;;;8.10;99.90;;;;;;6172791;23;20397;-81
2021/03/11 07:46:35;;;;;;;18.67;16.50;;;8.20;99.90;;;;;;6136478;23;20508;-81
2021/03/11 07:49:03;;;;;;;18.80;16.80;;;8.20;99.90;;;;;;6135784;23;20494;-81
2021/03/11 07:51:33;;;;;;;20.13;18.00;;;8.20;99.90;;;;;;6136519;23;20416;-81
2021/03/11 07:54:01;;;;;;;21.33;19.03;;;8.30;99.90;;;;;;6136116;23;20423;-81
2021/03/11 07:56:29;;;;;;;21.97;18.67;;;8.30;99.90;;;;;;6136909;23;20420;-81
2021/03/11 07:59:12;;;;;;;19.40;17.37;;;8.30;99.90;;;;;;6137178;23;20443;-81
2021/03/11 08:01:48;;;;;;;18.77;16.77;;;8.40;99.90;;;;;;6138649;23;20755;-81
2021/03/11 08:04:23;;;;;;;20.13;18.03;;;8.40;99.90;;;;;;6138848;23;20766;-81
2021/03/11 08:06:50;;;;;;;19.40;16.57;;;8.50;99.90;;;;;;6161948;23;20725;-81
2021/03/11 08:09:36;;;;;;;19.60;17.50;;;8.50;99.90;;;;;;6138472;23;20440;-81
2021/03/11 08:12:27;;;;;;;18.03;16.13;;;8.60;99.90;;;;;;6175332;23;20380;-81
2021/03/11 08:14:55;;;;;;;20.50;18.03;;;8.70;99.90;;;;;;6175016;23;20369;-81
2021/03/11 08:17:43;;;;;;;18.93;16.93;;;8.80;99.90;;;;;;6163174;23;20423;-81
2021/03/11 08:20:37;;;;;;;18.20;16.07;;;8.90;99.90;;;;;;6139901;23;20416;-81
2021/03/11 08:23:06;;;;;;;19.53;16.50;;;9.10;99.90;;;;;;6138367;23;20519;-81
2021/03/11 08:25:55;;;;;;;17.47;15.67;;;9.20;99.90;;;;;;6137946;23;20447;-81
2021/03/11 08:28:39;;;;;;;14.90;13.40;;;9.30;99.90;;;;;;6152102;23;20416;-81
2021/03/11 08:31:08;;;;;;;15.27;13.60;;;9.40;99.90;;;;;;6137910;23;20161;-81
2021/03/11 08:33:55;;;;;;;15.80;14.07;;;9.40;99.90;;;;;;6137681;23;20448;-81
2021/03/11 08:36:44;;;;;;;14.07;12.57;;;9.50;99.90;;;;;;6138352;23;20533;-81
2021/03/11 08:39:31;;;;;;;14.30;12.53;;;9.60;99.90;;;;;;6174441;23;20212;-82
2021/03/11 08:42:00;;;;;;;12.60;11.27;;;9.60;99.90;;;;;;6138107;23;20440;-82
2021/03/11 08:44:45;;;;;;;12.90;11.60;;;9.80;99.90;;;;;;6137434;23;20445;-81
2021/03/11 08:47:13;;;;;;;12.90;11.30;;;9.90;99.90;;;;;;6173618;23;20428;-81
2021/03/11 08:49:49;;;;;;;11.97;10.70;;;9.90;99.90;;;;;;6137716;23;20412;-81
2021/03/11 08:52:40;;;;;;;11.63;10.53;;;10.00;99.90;;;;;;6137355;23;20420;-81
2021/03/11 08:55:30;;;;;;;10.90;8.67;;;10.10;99.90;;;;;;6137601;23;20424;-81
2021/03/11 08:57:58;;;;;;;10.30;8.83;;;10.10;99.90;;;;;;6176102;23;20416;-81
2021/03/11 09:00:55;;;;;;;9.57;7.77;;;10.20;99.90;;;;;;6162591;23;20424;-81
2021/03/11 09:03:40;;;;;;;8.33;7.00;;;10.20;99.90;;;;;;6138646;23;20443;-81
2021/03/11 09:06:09;;;;;;;13.63;6.93;;;10.30;99.90;;;;;;6174341;23;20448;-81
2021/03/11 09:08:45;;;;;;;8.77;6.60;;;10.40;99.90;;;;;;6138879;23;20435;-81
2021/03/11 09:11:15;;;;;;;7.13;6.27;;;10.50;99.90;;;;;;6138141;23;20419;-81
2021/03/11 09:13:43;;;;;;;7.20;6.13;;;10.60;99.90;;;;;;6138467;23;20470;-81
2021/03/11 09:16:11;;;;;;;6.80;6.20;;;10.70;99.90;;;;;;6137342;23;20762;-81
2021/03/11 09:18:39;;;;;;;8.73;6.33;;;10.80;99.90;;;;;;6172767;23;20424;-81
2021/03/11 09:21:08;;;;;;;8.13;5.90;;;11.00;99.90;;;;;;6136641;23;20428;-81
2021/03/11 09:23:38;;;;;;;6.57;5.93;;;11.10;99.90;;;;;;6137077;23;20421;-81
2021/03/11 09:26:06;;;;;;;6.30;4.93;;;11.10;99.90;;;;;;6173393;23;20467;-81
2021/03/11 09:28:34;;;;;;;6.70;5.50;;;11.10;99.90;;;;;;6136183;23;20439;-81
2021/03/11 09:31:02;;;;;;;7.30;5.63;;;11.10;99.90;;;;;;6173090;23;20400;-81
2021/03/11 09:33:37;;;;;;;6.17;4.20;;;11.20;99.90;;;;;;6136124;23;20718;-81
2021/03/11 09:36:15;;;;;;;8.40;4.90;;;11.30;99.90;;;;;;6161967;23;20466;-81
2021/03/11 09:38:42;;;;;;;7.13;5.03;;;11.30;99.90;;;;;;6137366;23;20460;-81
2021/03/11 09:41:10;;;;;;;5.73;4.73;;;11.40;99.90;;;;;;6161705;23;20412;-81
2021/03/11 09:43:39;;;;;;;8.63;5.30;;;11.40;99.90;;;;;;6137485;23;20416;-81
2021/03/11 09:46:11;;;;;;;6.67;4.60;;;11.40;99.90;;;;;;6136536;23;20931;-81
2021/03/11 09:48:42;;;;;;;7.07;3.60;;;11.40;99.90;;;;;;6137389;23;20464;-82
2021/03/11 09:51:10;;;;;;;5.20;3.23;;;11.50;99.90;;;;;;6137585;23;20416;-81
2021/03/11 09:53:41;;;;;;;5.30;3.70;;;11.50;99.90;;;;;;6136278;23;20413;-81
2021/03/11 09:56:12;;;;;;;9.83;4.30;;;11.50;99.90;;;;;;6160695;23;20760;-81
2021/03/11 09:58:45;;;;;;;7.50;4.53;;;11.40;99.90;;;;;;6135779;23;20432;-81
2021/03/11 10:01:22;;;;;;;9.00;4.60;;;11.20;99.90;;;;;;6135964;23;20451;-81
2021/03/11 10:03:50;;;;;;;7.80;4.57;;;11.10;99.90;;;;;;6172276;23;20381;-82
2021/03/11 10:06:19;;;;;;;8.27;4.77;;;10.90;99.90;;;;;;6159641;23;20432;-82
2021/03/11 10:08:47;;;;;;;8.73;5.57;;;10.80;99.90;;;;;;6135353;23;20924;-82
2021/03/11 10:11:16;;;;;;;5.03;4.50;;;10.70;99.90;;;;;;6135720;23;20420;-82
2021/03/11 10:13:50;;;;;;;7.63;4.53;;;10.60;99.90;;;;;;6174761;23;20385;-84
2021/03/11 10:16:20;;;;;;;6.30;4.10;;;10.50;99.90;;;;;;6137728;23;20420;-84
2021/03/11 10:19:04;;;;;;;6.57;4.13;;;10.40;99.90;;;;;;6173044;23;20412;-83
2021/03/11 10:21:33;;;;;;;7.23;5.40;;;10.30;99.90;;;;;;6137242;23;20415;-83
2021/03/11 10:24:00;;;;;;;9.80;5.80;;;10.40;99.90;;;;;;6137009;23;20404;-82
2021/03/11 10:26:35;;;;;;;7.57;4.80;;;10.40;99.90;;;;;;6137680;23;20966;-82
2021/03/11 10:29:05;;;;;;;6.83;4.67;;;10.50;99.90;;;;;;6136456;23;20431;-82
2021/03/11 10:31:36;;;;;;;6.40;4.30;;;10.50;99.90;;;;;;6137116;23;20423;-82
2021/03/11 10:34:07;;;;;;;7.70;4.30;;;10.60;99.90;;;;;;6173118;23;20694;-82
2021/03/11 10:36:35;;;;;;;10.10;3.87;;;10.60;99.90;;;;;;6136843;23;20856;-82
2021/03/11 10:39:12;;;;;;;5.70;3.80;;;10.70;99.90;;;;;;6136692;23;20436;-82
2021/03/11 10:41:57;;;;;;;6.63;3.63;;;10.70;99.90;;;;;;6137754;23;20809;-83
2021/03/11 10:44:25;;;;;;;4.63;2.10;;;10.60;99.90;;;;;;6138084;23;20436;-83
2021/03/11 10:46:52;;;;;;;3.90;2.00;;;10.50;99.90;;;;;;6137255;23;20491;-84
2021/03/11 10:49:36;;;;;;;5.83;2.30;;;10.40;99.90;;;;;;6137796;23;20440;-83
2021/03/11 10:52:03;;;;;;;7.90;3.30;;;10.30;99.90;;;;;;6161610;23;20474;-83
2021/03/11 10:54:31;;;;;;;6.30;3.27;;;10.10;99.90;;;;;;6137850;23;20424;-83
2021/03/11 10:57:10;;;;;;;5.20;3.90;;;10.00;99.90;;;;;;6136892;23;20786;-83
2021/03/11 10:59:52;;;;;;;4.93;3.37;;;10.00;99.90;;;;;;6161903;23;20495;-83
2021/03/11 11:02:20;;;;;;;6.70;4.10;;;10.10;99.90;;;;;;6137829;23;20473;-83
2021/03/11 11:04:49;;;;;;;6.40;2.90;;;10.10;99.90;;;;;;6137302;23;20421;-83
2021/03/11 11:07:18;;;;;;;7.90;3.30;;;10.20;99.90;;;;;;6136446;23;20420;-83
2021/03/11 11:09:46;;;;;;;7.97;3.70;;;10.20;99.90;;;;;;6173513;23;20876;-83
2021/03/11 11:12:15;;;;;;;8.37;2.63;;;10.20;99.90;;;;;;6136851;23;20405;-83
2021/03/11 11:14:44;;;;;;;11.77;3.20;;;10.30;99.90;;;;;;6136891;23;20420;-83
2021/03/11 11:17:12;;;;;;;9.13;3.53;;;10.40;99.90;;;;;;6161417;23;20413;-83
2021/03/11 11:19:40;;;;;;;8.53;3.67;;;10.50;99.90;;;;;;6161848;23;20440;-83
2021/03/11 11:22:09;;;;;;;6.90;2.67;;;10.60;99.90;;;;;;6137271;23;20415;-82
2021/03/11 11:24:38;;;;;;;8.60;3.50;;;10.60;99.90;;;;;;6137648;23;20892;-82
2021/03/11 11:27:06;;;;;;;9.47;2.73;;;10.70;99.90;;;;;;6161134;23;20432;-82
2021/03/11 11:29:33;;;;;;;9.30;3.07;;;10.80;99.90;;;;;;6136556;23;20509;-82
2021/03/11 11:32:01;;;;;;;7.10;2.60;;;10.90;99.90;;;;;;6137428;23;20447;-82
2021/03/11 11:34:28;;;;;;;20.53;4.30;;;10.90;99.90;;;;;;6137824;23;20507;-82
2021/03/11 11:36:56;;;;;;;13.83;3.07;;;11.00;99.90;;;;;;6139204;23;20422;-82
2021/03/11 11:39:29;;;;;;;13.43;2.87;;;11.10;99.90;;;;;;6138977;23;20531;-82
2021/03/11 11:41:56;;;;;;;8.70;3.20;;;11.20;99.90;;;;;;6139739;23;20471;-82
2021/03/11 11:44:23;;;;;;;12.33;2.77;;;11.30;99.90;;;;;;6139736;23;20431;-82
2021/03/11 11:46:52;;;;;;;7.77;2.90;;;11.30;99.90;;;;;;6141535;23;20447;-82
2021/03/11 11:49:20;;;;;;;12.43;3.70;;;11.30;99.90;;;;;;6138936;23;20432;-82
2021/03/11 11:51:48;;;;;;;16.00;5.00;;;11.40;99.90;;;;;;6139518;23;20444;-82
2021/03/11 11:54:17;;;;;;;12.05;3.55;;;11.40;99.90;;;;;;6137520;23;20415;-82
2021/03/11 11:56:46;;;;;;;8.23;2.43;;;11.40;99.90;;;;;;6174905;23;20203;-81
2021/03/11 11:59:13;;;;;;;10.27;2.97;;;11.40;99.90;;;;;;6138673;23;20451;-82
2021/03/11 12:01:40;;;;;;;8.67;3.00;;;11.40;99.90;;;;;;6181704;23;20401;-82
2021/03/11 12:04:08;;;;;;;10.10;4.00;;;11.30;99.90;;;;;;6148042;23;20423;-82
2021/03/11 12:06:36;;;;;;;11.73;3.80;;;11.30;99.90;;;;;;6146838;23;20515;-82
2021/03/11 12:09:04;;;;;;;10.57;3.30;;;11.20;99.90;;;;;;6175581;23;20465;-82
2021/03/11 12:11:31;;;;;;;8.47;2.57;;;11.20;99.90;;;;;;6139537;23;20420;-82
2021/03/11 12:13:59;;;;;;;14.30;2.97;;;11.20;99.90;;;;;;6139225;23;20419;-82
2021/03/11 12:16:27;;;;;;;8.40;3.10;;;11.10;99.90;;;;;;6139474;23;20416;-82
2021/03/11 12:18:54;;;;;;;10.30;3.20;;;11.10;99.90;;;;;;6163577;23;20511;-82
2021/03/11 12:21:22;;;;;;;9.53;4.03;;;11.10;99.90;;;;;;6139081;23;20416;-82
2021/03/11 12:23:49;;;;;;;9.33;2.60;;;11.10;99.90;;;;;;6175569;23;20392;-82
2021/03/11 12:26:17;;;;;;;9.63;3.00;;;11.20;99.90;;;;;;6139023;23;20440;-82
2021/03/11 12:28:47;;;;;;;5.60;2.53;;;11.20;99.90;;;;;;6174269;23;20480;-82
2021/03/11 12:31:15;;;;;;;10.90;2.60;;;11.20;99.90;;;;;;6138108;23;20444;-81
2021/03/11 12:33:46;;;;;;;10.93;4.40;;;11.10;99.90;;;;;;6138084;23;20449;-82
2021/03/11 12:36:13;;;;;;;6.70;2.43;;;11.10;99.90;;;;;;6137378;23;20409;-82
2021/03/11 12:38:41;;;;;;;11.93;2.53;;;11.10;99.90;;;;;;6174101;23;20412;-82
2021/03/11 12:41:09;;;;;;;10.13;3.57;;;11.10;99.90;;;;;;6137926;23;20439;-81
2021/03/11 12:43:36;;;;;;;9.60;3.00;;;11.00;99.90;;;;;;6137741;23;20424;-82
2021/03/11 12:46:04;;;;;;;10.23;3.17;;;11.00;99.90;;;;;;6137349;23;20507;-82
2021/03/11 12:48:33;;;;;;;7.97;3.47;;;10.90;99.90;;;;;;6174322;23;20420;-82
2021/03/11 12:51:01;;;;;;;14.23;3.20;;;10.80;99.90;;;;;;6173553;23;20404;-82
2021/03/11 12:53:28;;;;;;;7.23;2.77;;;10.80;99.90;;;;;;6138532;23;20448;-82
2021/03/11 12:55:56;;;;;;;11.47;3.70;;;10.70;99.90;;;;;;6173715;23;20452;-82